Pineville, MO (64856)

6:47 AM CST on February 19, 2017 (GMT -0600)
Brush Creek | | Change Station
Active Advisory: Dense Fog Advisory

Elev 1056 ft 36.51 °N, 94.34 °W | Updated 4 seconds ago

Clear
Clear
40.8 °F
Feels Like 41 °F
N
2.0
Wind Variable Wind from ESE
Gusts 2.5 mph

Today
High -- | Low -- °F
--% Chance of Precip.
Yesterday
High -- | Low -- °F
Precip. -- in
Pressure 29.98 in
Visibility 10.0 miles
Clouds Clear
Windchill 41 °F
Dew Point 41 °F
Humidity 99%
Rainfall 0.00 in
Snow Depth Not available.
7:00 AM 6:02 PM
Last Quarter, 43% visible
METAR KVBT 191235Z AUTO 12005KT 10SM CLR 09/08 A2998 RMK AO1
Pressure 29.98 in
Visibility 10.0 miles
Clouds Clear
Windchill 41 °F
Dew Point 41 °F
Humidity 99%
Rainfall 0.00 in
Snow Depth Not available.
7:00 AM 6:02 PM
Last Quarter, 43% visible
METAR KVBT 191235Z AUTO 12005KT 10SM CLR 09/08 A2998 RMK AO1

Get Your Daily Forecast Email!

Thanks for signing up!

Be on the lookout for a verification email in your inbox.

You'll start receiving the daily forecast at 8 AM.

×

10-Day Weather Forecast

Almanac

Astronomy

Feb. 19, 2017 Rise Set
Actual Time
Civil Twilight
Nautical Twilight
Astronomical Twilight
Moon
Length of Visible Light
Length of Day
Tomorrow will be .
, % of the Moon is Illuminated

Today's Extremes

State Highs State Lows

Community

WunderPhotos

Upload Photos

1,962,540 photos uploaded!

WunderBlog® & News

Nearby

Air Quality

  Air Quality AQ Index Pollutant
Not available.

Snow Depth

Station Depth Elevation

Earthquake Activity

City Distance Mag. Time & Date
Minimum magnitude displayed is 2.5.

Coastal Water Temperatures

Place Temperature

Stations

Nearby Weather Stations

Station Location Temp. Windchill Dew Point Humidity Wind Precip. Elev Updated Type
                   

Watches & Warnings

Dense Fog Advisory
Issued: 5:25 AM CST Feb. 19, 2017 – National Weather Service

... Dense fog advisory remains in effect until 9 am CST this
morning...

* visibility... areas of dense fog will reduce the visibility to
near one quarter mile or less across southeastern Kansas and far
western Missouri.

* Impacts... sudden reductions in visibility will occur over short
distances. Areas of dense fog will impact the Interstate 49
corridor.

Precautionary/preparedness actions...

A dense fog advisory means visibilities will frequently be
reduced to less than one quarter mile. If driving, slow down, use
your headlights, and leave plenty of distance ahead of you.



Foster